createdAt,value
2022-11-15T00:01:44.023Z,24.93
2022-11-15T00:04:29.348Z,26.20
2022-11-15T00:07:33.169Z,25.77
2022-11-15T00:10:19.711Z,25.07
2022-11-15T00:13:13.077Z,26.80
2022-11-15T00:16:00.382Z,25.33
2022-11-15T00:18:50.433Z,26.77
2022-11-15T00:21:36.553Z,24.83
2022-11-15T00:24:21.652Z,25.03
2022-11-15T00:27:08.249Z,24.00
2022-11-15T00:29:54.241Z,24.20
2022-11-15T00:32:39.398Z,24.77
2022-11-15T00:35:24.714Z,25.03
2022-11-15T00:38:10.305Z,25.97
2022-11-15T00:40:55.596Z,24.67
2022-11-15T00:43:43.147Z,24.07
2022-11-15T00:46:28.561Z,24.57
2022-11-15T00:49:13.814Z,25.03
2022-11-15T00:51:59.175Z,25.07
2022-11-15T00:54:44.597Z,23.90
2022-11-15T00:57:29.894Z,25.13
2022-11-15T01:00:15.746Z,25.57
2022-11-15T01:03:02.313Z,23.17
2022-11-15T01:05:47.631Z,24.23
2022-11-15T01:08:33.675Z,23.30
2022-11-15T01:11:18.817Z,23.20
2022-11-15T01:14:04.148Z,23.57
2022-11-15T01:16:49.494Z,23.80
2022-11-15T01:19:34.886Z,24.80
2022-11-15T01:22:20.465Z,21.40
2022-11-15T01:25:05.885Z,21.87
2022-11-15T01:27:51.152Z,23.03
2022-11-15T01:30:37.633Z,21.60
2022-11-15T01:33:22.681Z,21.33
2022-11-15T01:36:22.707Z,21.80
2022-11-15T01:39:09.153Z,21.47
2022-11-15T01:41:55.171Z,21.93
2022-11-15T01:44:55.700Z,21.93
2022-11-15T01:47:47.929Z,22.03
2022-11-15T01:50:34.148Z,22.47
2022-11-15T01:53:22.363Z,21.23
2022-11-15T01:56:11.890Z,21.33
2022-11-15T01:58:59.548Z,21.87
2022-11-15T02:01:45.172Z,19.73
2022-11-15T02:04:34.981Z,21.30
2022-11-15T02:07:22.738Z,20.97
2022-11-15T02:10:13.175Z,20.77
2022-11-15T02:13:00.661Z,19.77
2022-11-15T02:16:38.760Z,19.33
2022-11-15T02:19:34.501Z,19.20
2022-11-15T02:23:09.783Z,19.17
2022-11-15T02:26:59.458Z,18.23
2022-11-15T02:29:53.679Z,19.27
2022-11-15T02:33:03.463Z,18.27
2022-11-15T02:36:32.163Z,17.67
2022-11-15T02:39:24.557Z,18.00
2022-11-15T02:42:40.542Z,17.23
2022-11-15T02:45:34.628Z,19.03
2022-11-15T02:48:22.244Z,17.60
2022-11-15T02:51:07.710Z,18.90
2022-11-15T02:53:52.974Z,18.33
2022-11-15T02:56:38.556Z,19.17
2022-11-15T02:59:48.372Z,18.50
2022-11-15T03:03:09.133Z,18.37
2022-11-15T03:06:18.597Z,18.13
2022-11-15T03:09:18.502Z,17.10
2022-11-15T03:12:24.862Z,16.53
2022-11-15T03:15:32.404Z,16.70
2022-11-15T03:18:34.498Z,17.10
2022-11-15T03:21:22.741Z,19.47
2022-11-15T03:24:09.683Z,17.63
2022-11-15T03:26:57.758Z,16.43
2022-11-15T03:29:50.094Z,16.70
2022-11-15T03:32:47.563Z,16.77
2022-11-15T03:35:43.538Z,17.33
2022-11-15T03:38:32.998Z,17.77
2022-11-15T03:41:30.686Z,17.43
2022-11-15T03:44:35.943Z,17.80
2022-11-15T03:47:40.532Z,17.23
2022-11-15T03:50:26.893Z,17.83
2022-11-15T03:53:13.048Z,18.40
2022-11-15T03:55:58.948Z,18.43
2022-11-15T03:58:44.040Z,17.20
2022-11-15T04:01:29.728Z,18.80
2022-11-15T04:04:15.017Z,17.10
2022-11-15T04:07:00.614Z,16.90
2022-11-15T04:10:03.953Z,18.33
2022-11-15T04:12:49.135Z,17.53
2022-11-15T04:15:34.850Z,18.87
2022-11-15T04:18:20.182Z,18.83
2022-11-15T04:21:24.665Z,18.00
2022-11-15T04:24:15.694Z,18.50
2022-11-15T04:27:01.219Z,17.13
2022-11-15T04:29:46.610Z,16.83
2022-11-15T04:32:32.111Z,16.27
2022-11-15T04:35:17.535Z,17.87
2022-11-15T04:38:05.594Z,17.03
2022-11-15T04:40:50.815Z,17.77
2022-11-15T04:43:36.276Z,18.07
2022-11-15T04:46:23.532Z,18.30
2022-11-15T04:49:09.087Z,20.07
2022-11-15T04:51:54.534Z,19.90
2022-11-15T04:54:39.577Z,19.47
2022-11-15T04:57:24.958Z,18.10
2022-11-15T05:00:16.125Z,19.63
2022-11-15T05:03:19.542Z,18.43
2022-11-15T05:06:05.067Z,18.77
2022-11-15T05:08:50.105Z,19.43
2022-11-15T05:11:35.389Z,17.43
2022-11-15T05:14:20.736Z,19.17
2022-11-15T05:17:06.105Z,18.63
2022-11-15T05:19:52.877Z,18.43
2022-11-15T05:22:38.465Z,17.23
2022-11-15T05:25:24.193Z,18.17
2022-11-15T05:28:09.680Z,16.50
2022-11-15T05:31:06.553Z,18.37
2022-11-15T05:33:52.908Z,17.43
2022-11-15T05:36:43.027Z,17.67
2022-11-15T05:39:28.034Z,17.20
2022-11-15T05:42:16.132Z,16.90
2022-11-15T05:45:07.129Z,17.77
2022-11-15T05:47:54.702Z,16.23
2022-11-15T05:50:44.421Z,16.10
2022-11-15T05:53:31.570Z,17.23
2022-11-15T05:56:17.365Z,17.10
2022-11-15T05:59:03.418Z,15.47
2022-11-15T06:01:48.915Z,15.70
2022-11-15T06:04:34.156Z,16.00
2022-11-15T06:07:19.672Z,15.70
2022-11-15T06:10:05.834Z,15.90
2022-11-15T06:13:05.419Z,16.27
2022-11-15T06:15:50.683Z,17.47
2022-11-15T06:18:37.438Z,17.83
2022-11-15T06:21:23.343Z,17.37
2022-11-15T06:24:08.833Z,16.13
2022-11-15T06:26:54.424Z,16.43
2022-11-15T06:29:40.054Z,15.77
2022-11-15T06:32:25.400Z,18.57
2022-11-15T06:35:10.748Z,16.80
2022-11-15T06:37:56.551Z,17.83
2022-11-15T06:40:42.150Z,16.87
2022-11-15T06:43:28.317Z,17.23
2022-11-15T06:46:13.444Z,17.43
2022-11-15T06:48:58.901Z,16.30
2022-11-15T06:51:44.371Z,16.53
2022-11-15T06:54:29.811Z,17.63
2022-11-15T06:57:15.363Z,17.17
2022-11-15T07:00:00.603Z,17.17
2022-11-15T07:02:46.307Z,16.50
2022-11-15T07:05:31.593Z,17.20
2022-11-15T07:08:16.828Z,17.23
2022-11-15T07:11:06.399Z,16.87
2022-11-15T07:13:51.378Z,17.00
2022-11-15T07:16:38.439Z,17.23
2022-11-15T07:19:23.713Z,20.40
2022-11-15T07:22:09.014Z,18.20
2022-11-15T07:24:54.848Z,17.50
2022-11-15T07:27:40.588Z,16.60
2022-11-15T07:30:27.407Z,16.20
2022-11-15T07:33:13.110Z,16.30
2022-11-15T07:36:06.939Z,16.77
2022-11-15T07:38:52.384Z,16.97
2022-11-15T07:41:37.869Z,16.93
2022-11-15T07:44:23.012Z,16.17
2022-11-15T07:47:08.358Z,18.00
2022-11-15T07:49:53.691Z,15.50
2022-11-15T07:52:38.980Z,18.03
2022-11-15T07:55:26.099Z,15.90
2022-11-15T07:58:12.855Z,16.43
2022-11-15T08:00:58.088Z,15.40
2022-11-15T08:03:43.418Z,15.53
2022-11-15T08:06:28.960Z,17.17
2022-11-15T08:09:14.561Z,15.47
2022-11-15T08:11:59.679Z,15.93
2022-11-15T08:14:45.192Z,15.03
2022-11-15T08:17:33.701Z,15.30
2022-11-15T08:20:20.409Z,16.50
2022-11-15T08:23:06.996Z,15.43
2022-11-15T08:25:52.351Z,15.80
2022-11-15T08:28:38.038Z,17.47
2022-11-15T08:31:23.231Z,16.23
2022-11-15T08:34:09.177Z,16.30
2022-11-15T08:36:54.569Z,14.60
2022-11-15T08:39:40.192Z,13.43
2022-11-15T08:42:25.343Z,14.17
2022-11-15T08:45:10.984Z,14.02
2022-11-15T08:47:56.805Z,13.20
2022-11-15T08:50:41.856Z,14.23
2022-11-15T08:53:27.287Z,14.48
2022-11-15T08:56:15.119Z,15.30
2022-11-15T08:59:00.352Z,13.63
2022-11-15T09:01:45.700Z,13.50
2022-11-15T09:04:31.364Z,16.10
2022-11-15T09:07:17.139Z,13.10
2022-11-15T09:10:02.492Z,13.18
2022-11-15T09:12:49.498Z,13.10
2022-11-15T09:15:35.073Z,13.55
2022-11-15T09:18:23.065Z,11.57
2022-11-15T09:21:09.226Z,14.07
2022-11-15T09:23:55.362Z,13.38
2022-11-15T09:26:41.793Z,14.00
2022-11-15T09:29:27.351Z,12.73
2022-11-15T09:32:12.783Z,13.00
2022-11-15T09:34:59.107Z,11.98
2022-11-15T09:37:44.861Z,11.15
2022-11-15T09:40:33.556Z,10.68
2022-11-15T09:44:06.169Z,11.70
2022-11-15T09:47:04.796Z,11.30
2022-11-15T09:50:02.620Z,10.50
2022-11-15T09:52:35.850Z,10.82
2022-11-15T09:55:02.807Z,10.55
2022-11-15T09:57:57.653Z,10.30
2022-11-15T10:00:48.576Z,10.45
2022-11-15T10:03:40.358Z,9.82
2022-11-15T10:06:10.768Z,9.77
2022-11-15T10:09:06.525Z,9.98
2022-11-15T10:11:38.940Z,9.73
2022-11-15T10:14:26.466Z,9.98
2022-11-15T10:17:11.349Z,10.35
2022-11-15T10:20:11.162Z,9.52
2022-11-15T10:22:50.348Z,10.07
2022-11-15T10:25:19.126Z,8.65
2022-11-15T10:27:54.552Z,9.45
2022-11-15T10:30:21.630Z,9.25
2022-11-15T10:32:50.491Z,8.80
2022-11-15T10:35:24.774Z,8.65
2022-11-15T10:37:51.721Z,8.25
2022-11-15T10:40:25.328Z,8.90
2022-11-15T10:43:16.953Z,9.05
2022-11-15T10:45:45.121Z,8.95
2022-11-15T10:48:14.756Z,8.63
2022-11-15T10:50:46.412Z,8.23
2022-11-15T10:53:24.987Z,9.98
2022-11-15T10:55:56.734Z,8.70
2022-11-15T10:58:43.692Z,8.38
2022-11-15T11:01:30.515Z,8.10
2022-11-15T11:04:07.102Z,7.25
2022-11-15T11:06:59.287Z,7.70
2022-11-15T11:09:43.223Z,7.97
2022-11-15T11:12:13.320Z,7.85
2022-11-15T11:14:40.776Z,7.90
2022-11-15T11:17:36.099Z,7.57
2022-11-15T11:20:25.537Z,8.23
2022-11-15T11:23:07.422Z,7.60
2022-11-15T11:25:50.947Z,7.40
2022-11-15T11:28:54.945Z,7.70
2022-11-15T11:31:48.516Z,7.30
2022-11-15T11:34:27.097Z,7.38
2022-11-15T11:37:30.129Z,6.85
2022-11-15T11:40:33.782Z,7.60
2022-11-15T11:43:40.678Z,7.72
2022-11-15T11:46:31.749Z,7.18
2022-11-15T11:49:09.101Z,7.78
2022-11-15T11:51:44.727Z,7.32
2022-11-15T11:54:32.564Z,7.50
2022-11-15T11:57:00.930Z,6.65
2022-11-15T12:00:01.619Z,6.43
2022-11-15T12:02:40.185Z,6.45
2022-11-15T12:06:13.665Z,6.53
2022-11-15T12:08:59.118Z,6.95
2022-11-15T12:11:44.154Z,6.82
2022-11-15T12:14:28.296Z,6.30
2022-11-15T12:16:55.159Z,6.68
2022-11-15T12:19:22.112Z,8.65
2022-11-15T12:22:01.750Z,7.72
2022-11-15T12:24:56.486Z,7.07
2022-11-15T12:27:42.500Z,7.03
2022-11-15T12:30:15.076Z,5.80
2022-11-15T12:33:00.114Z,5.15
2022-11-15T12:35:39.338Z,6.53
2022-11-15T12:38:13.557Z,6.47
2022-11-15T12:41:18.351Z,6.63
2022-11-15T12:43:50.023Z,9.48
2022-11-15T12:46:22.443Z,6.38
2022-11-15T12:48:57.017Z,6.47
2022-11-15T12:51:43.894Z,5.40
2022-11-15T12:54:22.593Z,5.13
2022-11-15T12:57:04.780Z,4.85
2022-11-15T13:00:05.128Z,6.00
2022-11-15T13:02:46.456Z,5.45
2022-11-15T13:05:16.259Z,5.75
2022-11-15T13:07:42.885Z,6.13
2022-11-15T13:10:28.172Z,6.15
2022-11-15T13:13:02.103Z,5.43
2022-11-15T13:15:41.315Z,5.50
2022-11-15T13:18:24.710Z,6.03
2022-11-15T13:20:51.457Z,5.07
2022-11-15T13:23:18.317Z,5.85
2022-11-15T13:26:17.432Z,5.47
2022-11-15T13:28:52.743Z,5.10
2022-11-15T13:31:41.441Z,5.30
2022-11-15T13:34:52.335Z,5.00
2022-11-15T13:37:22.831Z,5.35
2022-11-15T13:39:50.464Z,5.07
2022-11-15T13:42:20.540Z,5.93
2022-11-15T13:45:20.703Z,5.97
2022-11-15T13:47:55.328Z,5.07
2022-11-15T13:50:29.254Z,4.93
2022-11-15T13:53:01.194Z,5.10
2022-11-15T13:55:29.826Z,6.45
2022-11-15T13:58:01.559Z,8.93
2022-11-15T14:00:43.668Z,7.70
2022-11-15T14:03:16.705Z,9.25
2022-11-15T14:05:43.937Z,10.90
2022-11-15T14:08:24.814Z,13.55
2022-11-15T14:11:20.768Z,7.68
2022-11-15T14:14:09.115Z,13.80
2022-11-15T14:16:37.277Z,10.20
2022-11-15T14:19:06.157Z,7.45
2022-11-15T14:21:33.443Z,6.13
2022-11-15T14:24:21.589Z,5.72
2022-11-15T14:26:48.587Z,7.05
2022-11-15T14:29:29.887Z,7.10
2022-11-15T14:32:16.865Z,6.70
2022-11-15T14:34:44.043Z,6.82
2022-11-15T14:37:22.073Z,7.40
2022-11-15T14:39:49.659Z,10.07
2022-11-15T14:42:17.614Z,7.13
2022-11-15T14:44:46.165Z,7.22
2022-11-15T14:47:13.998Z,7.15
2022-11-15T14:49:40.886Z,7.35
2022-11-15T14:52:32.219Z,7.80
2022-11-15T14:55:02.218Z,7.25
2022-11-15T14:57:29.831Z,7.72
2022-11-15T14:59:57.731Z,7.38
2022-11-15T15:02:27.691Z,7.60
2022-11-15T15:04:54.765Z,7.40
2022-11-15T15:07:22.078Z,8.18
2022-11-15T15:09:49.481Z,8.65
2022-11-15T15:12:21.310Z,8.57
2022-11-15T15:14:50.273Z,8.10
2022-11-15T15:17:18.074Z,9.50
2022-11-15T15:19:45.021Z,8.70
2022-11-15T15:22:26.374Z,8.10
2022-11-15T15:24:53.173Z,8.80
2022-11-15T15:27:19.919Z,9.07
2022-11-15T15:29:46.644Z,9.63
2022-11-15T15:32:14.442Z,9.65
2022-11-15T15:34:41.883Z,8.10
2022-11-15T15:37:27.124Z,9.73
2022-11-15T15:39:56.810Z,10.10
2022-11-15T15:42:24.477Z,9.38
2022-11-15T15:44:51.847Z,9.90
2022-11-15T15:47:23.721Z,9.15
2022-11-15T15:49:51.621Z,9.98
2022-11-15T15:52:18.949Z,9.93
2022-11-15T15:54:45.741Z,9.90
2022-11-15T15:57:14.619Z,9.20
2022-11-15T15:59:41.614Z,10.30
2022-11-15T16:02:13.128Z,9.75
2022-11-15T16:04:41.094Z,10.00
2022-11-15T16:07:22.099Z,11.10
2022-11-15T16:10:00.893Z,12.27
2022-11-15T16:12:36.519Z,10.70
2022-11-15T16:15:04.241Z,10.77
2022-11-15T16:17:39.614Z,10.07
2022-11-15T16:20:07.109Z,9.45
2022-11-15T16:22:33.938Z,10.82
2022-11-15T16:25:00.719Z,10.40
2022-11-15T16:27:27.548Z,11.60
2022-11-15T16:29:54.230Z,11.52
2022-11-15T16:32:21.062Z,11.65
2022-11-15T16:34:49.399Z,11.70
2022-11-15T16:37:24.124Z,11.98
2022-11-15T16:39:53.930Z,12.00
2022-11-15T16:42:22.971Z,12.35
2022-11-15T16:44:49.640Z,11.80
2022-11-15T16:47:21.137Z,12.55
2022-11-15T16:49:47.928Z,12.75
2022-11-15T16:52:20.132Z,13.50
2022-11-15T16:54:48.122Z,13.68
2022-11-15T16:57:16.513Z,13.52
2022-11-15T16:59:43.432Z,13.30
2022-11-15T17:02:13.045Z,13.90
2022-11-15T17:04:39.865Z,13.43
2022-11-15T17:07:06.850Z,13.35
2022-11-15T17:09:34.552Z,13.68
2022-11-15T17:12:01.303Z,13.30
2022-11-15T17:14:28.136Z,12.43
2022-11-15T17:16:57.733Z,12.85
2022-11-15T17:19:24.788Z,12.73
2022-11-15T17:21:51.885Z,13.15
2022-11-15T17:24:20.995Z,12.57
2022-11-15T17:26:51.196Z,14.07
2022-11-15T17:29:18.533Z,13.18
2022-11-15T17:31:45.875Z,16.55
2022-11-15T17:34:13.307Z,13.68
2022-11-15T17:36:40.581Z,14.73
2022-11-15T17:39:07.672Z,19.08
2022-11-15T17:41:34.763Z,18.33
2022-11-15T17:44:03.462Z,15.73
2022-11-15T17:46:31.190Z,16.63
2022-11-15T17:48:59.875Z,17.43
2022-11-15T17:51:26.635Z,17.10
2022-11-15T17:53:53.569Z,16.70
2022-11-15T17:56:23.238Z,15.30
2022-11-15T17:58:53.449Z,14.53
2022-11-15T18:01:36.470Z,14.40
2022-11-15T18:04:08.211Z,15.73
2022-11-15T18:06:36.663Z,13.87
2022-11-15T18:09:04.873Z,15.23
2022-11-15T18:11:39.310Z,14.83
2022-11-15T18:14:12.576Z,15.83
2022-11-15T18:16:40.399Z,15.33
2022-11-15T18:19:14.016Z,15.40
2022-11-15T18:21:58.895Z,16.47
2022-11-15T18:24:38.633Z,15.93
2022-11-15T18:27:07.530Z,22.83
2022-11-15T18:29:37.615Z,26.70
2022-11-15T18:32:11.566Z,21.63
2022-11-15T18:34:42.119Z,28.20
2022-11-15T18:37:09.173Z,21.03
2022-11-15T18:39:35.926Z,19.57
2022-11-15T18:42:02.872Z,18.43
2022-11-15T18:44:30.494Z,20.13
2022-11-15T18:46:57.781Z,19.23
2022-11-15T18:49:24.446Z,19.03
2022-11-15T18:51:51.227Z,19.17
2022-11-15T18:54:18.159Z,18.87
2022-11-15T18:56:45.871Z,19.50
2022-11-15T18:59:13.511Z,18.47
2022-11-15T19:01:43.822Z,18.90
2022-11-15T19:04:13.799Z,29.87
2022-11-15T19:06:43.308Z,22.60
2022-11-15T19:09:13.872Z,19.10
2022-11-15T19:11:41.155Z,20.70
2022-11-15T19:14:11.162Z,19.33
2022-11-15T19:16:50.267Z,20.80
2022-11-15T19:19:21.153Z,21.23
2022-11-15T19:21:48.215Z,19.93
2022-11-15T19:24:15.504Z,20.07
2022-11-15T19:26:42.980Z,20.90
2022-11-15T19:29:10.606Z,20.63
2022-11-15T19:31:38.006Z,20.73
2022-11-15T19:34:07.615Z,20.60
2022-11-15T19:36:40.582Z,21.60
2022-11-15T19:39:12.712Z,22.37
2022-11-15T19:41:44.230Z,21.47
2022-11-15T19:44:13.074Z,22.10
2022-11-15T19:46:40.808Z,21.10
2022-11-15T19:49:10.391Z,21.73
2022-11-15T19:51:37.592Z,21.33
2022-11-15T19:54:08.652Z,21.33
2022-11-15T19:56:35.944Z,20.97
2022-11-15T19:59:04.618Z,20.33
2022-11-15T20:01:36.223Z,20.67
2022-11-15T20:04:06.356Z,20.60
2022-11-15T20:06:37.102Z,20.47
2022-11-15T20:09:04.322Z,19.90
2022-11-15T20:11:31.064Z,20.90
2022-11-15T20:13:59.636Z,20.37
2022-11-15T20:16:26.547Z,22.00
2022-11-15T20:18:53.830Z,30.00
2022-11-15T20:30:09.260Z,5.95
2022-11-15T20:32:36.056Z,5.63
2022-11-15T20:35:02.824Z,4.78
2022-11-15T20:38:47.715Z,5.38
2022-11-15T20:43:55.977Z,6.00
2022-11-15T20:46:22.543Z,5.10
2022-11-15T20:48:49.063Z,4.80
2022-11-15T20:54:44.404Z,4.35
2022-11-15T21:00:08.218Z,4.57
2022-11-15T21:02:34.897Z,4.68
2022-11-15T21:05:01.713Z,5.40
